Terminal Aerodrome Forecast
Issued by NWS

Home | Current Version | Previous Version | Text Only | Print | Product List | Glossary On
Versions: 1 2 3 4 5 6 7 8 9 10 11 12 13 14 15 16 17 18 19
000
FTUS43 KDLH 161500 AAA
TAFHYR
TAF AMD
KHYR 161547Z 1616/1712 20008KT P6SM BKN140
     FM162000 24005KT P6SM BKN100
     FM162300 VRB03KT P6SM VCSH BKN070 BKN100
     FM170900 35004KT P6SM BKN090=

USA.gov is the U.S. government's official web portal to all federal, state and local government web resources and services.